• Join FlightAware (Why Join?)
  • Login
  • US Flag 
Gobble Gobble! 
02:49PM EST


 

Airport Tracker/Info


-or-


 

Live Flight TrackerFlight Track Log ✈ QLK107D ✈ 06-Jul-2013 ✈ YCFS - YSSY / SYD

Flight Track Log - Related Links

Times and Time Zones

All times are in EDT time to prevent confusion due to time zone crossing. See the QLK107D flight status page for this flight to view local times or setup timezone preferences in your user account.

Time Position Orientation Groundspeed Altitude Reporting Facility
EDT Latitude Longitude Course Direction KTS MPH feet Rate Location/Type
08:24PM -30.3122 153.1172 213° Southwest 22,000  Level Aus ATC (Calculated)
08:25PM -30.3595 153.0791 213° Southwest 22,000 -3,840 Level Aus ATC (Calculated)
08:25PM -30.4069 153.0410 212° Southwest 22,000 -5,160 Level Aus ATC (Calculated)
08:26PM -30.4542 153.0028 210° Southwest 22,000 -7,380 Level Aus ATC (Calculated)
08:26PM -30.5015 152.9646 137° Southeast 22,000 -8,640 Level Aus ATC (Calculated)
08:27PM -30.5054 152.9688 215° Southwest 217 250 8,900 -8,520 Descending Aus ATC (RADAR)
08:28PM -30.5355 152.9442 215° Southwest 224 258 10,100 2,100 Climbing Aus ATC (RADAR)
08:28PM -30.5788 152.9132 212° Southwest 242 278 11,700 1,980 Climbing Aus ATC (RADAR)
08:29PM -30.6052 152.8910 216° Southwest 238 274 12,600 1,740 Climbing Aus ATC (RADAR)
08:29PM -30.6367 152.8644 216° Southwest 240 276 13,600 1,740 Climbing Aus ATC (RADAR)
08:30PM -30.6848 152.8260 214° Southwest 251 289 15,100 1,740 Climbing Aus ATC (RADAR)
08:31PM -30.7386 152.7790 217° Southwest 242 278 16,800 1,500 Climbing Aus ATC (RADAR)
08:32PM -30.7808 152.7457 214° Southwest 244 281 17,800 1,260 Climbing Aus ATC (RADAR)
08:33PM -30.8128 152.7190 216° Southwest 244 281 18,500 1,200 Climbing Aus ATC (RADAR)
08:33PM -30.8549 152.6857 214° Southwest 245 282 19,400 600 Climbing Aus ATC (RADAR)
08:34PM -30.8926 152.6530 217° Southwest 257 296 19,400 -360 Level Aus ATC (RADAR)
08:35PM -30.9306 152.6224 215° Southwest 280 322 19,000 -600 Descending Aus ATC (RADAR)
08:35PM -30.9710 152.5893 215° Southwest 300 345 18,700 -600 Descending Aus ATC (RADAR)
08:36PM -31.0070 152.5597 215° Southwest 313 360 18,400 -480 Descending Aus ATC (RADAR)
08:36PM -31.0501 152.5246 215° Southwest 323 372 18,200 -180 Descending Aus ATC (RADAR)
08:37PM -31.1050 152.4787 216° Southwest 324 373 18,200  Level Aus ATC (RADAR)
08:38PM -31.1473 152.4435 215° Southwest 322 371 18,200  Level Aus ATC (RADAR)
08:38PM -31.1960 152.4036 215° Southwest 321 369 18,200  Level Aus ATC (RADAR)
08:39PM -31.2438 152.3639 215° Southwest 319 367 18,200  Level Aus ATC (RADAR)
08:40PM -31.3153 152.3035 216° Southwest 317 365 18,200  Level Aus ATC (RADAR)
08:41PM -31.3872 152.2440 215° Southwest 315 362 18,200  Level Aus ATC (RADAR)
08:42PM -31.4411 152.1990 215° Southwest 319 367 18,200  Level Aus ATC (RADAR)
08:42PM -31.4826 152.1636 216° Southwest 318 366 18,200  Level Aus ATC (RADAR)
08:43PM -31.5254 152.1280 215° Southwest 324 373 18,200  Level Aus ATC (RADAR)
08:43PM -31.5620 152.0976 215° Southwest 324 373 18,200 60 Level Aus ATC (RADAR)
08:44PM -31.6149 152.0532 216° Southwest 316 364 18,300  Climbing Aus ATC (RADAR)
08:45PM -31.6715 152.0056 216° Southwest 325 374 18,200  Descending Aus ATC (RADAR)
08:46PM -31.7374 151.9500 216° Southwest 322 371 18,300 60 Climbing Aus ATC (RADAR)
08:47PM -31.7929 151.9036 215° Southwest 321 369 18,300  Level Aus ATC (RADAR)
08:47PM -31.8360 151.8671 216° Southwest 322 371 18,300  Level Aus ATC (RADAR)
08:48PM -31.8976 151.8148 216° Southwest 322 371 18,300 -60 Level Aus ATC (RADAR)
08:49PM -31.9598 151.7625 216° Southwest 325 374 18,200 -60 Descending Aus ATC (RADAR)
08:50PM -32.0344 151.6998 215° Southwest 325 374 18,200  Level Aus ATC (RADAR)
08:51PM -32.1146 151.6315 216° Southwest 323 372 18,200  Level Aus ATC (RADAR)
08:52PM -32.1708 151.5840 216° Southwest 327 376 18,200  Level Aus ATC (RADAR)
08:52PM -32.2144 151.5467 216° Southwest 329 379 18,200  Level Aus ATC (RADAR)
08:53PM -32.2570 151.5105 216° Southwest 319 367 18,200  Level Aus ATC (RADAR)
08:54PM -32.3313 151.4471 216° Southwest 295 339 18,200  Level Aus ATC (RADAR)
08:54PM -32.3684 151.4158 215° Southwest 277 319 18,200  Level Aus ATC (RADAR)
08:55PM -32.4024 151.3864 216° Southwest 258 297 18,200  Level Aus ATC (RADAR)
08:56PM -32.4366 151.3565 216° Southwest 254 292 18,200  Level Aus ATC (RADAR)
08:56PM -32.4636 151.3332 216° Southwest 248 285 18,200  Level Aus ATC (RADAR)
08:57PM -32.5028 151.3004 215° Southwest 251 289 18,200  Level Aus ATC (RADAR)
08:58PM -32.5601 151.2544 214° Southwest 254 292 18,200  Level Aus ATC (RADAR)
08:58PM -32.5986 151.2509 184° South 267 307 18,200  Level Aus ATC (RADAR)
08:59PM -32.6447 151.2508 180° South 280 322 18,200  Level Aus ATC (RADAR)
09:00PM -32.7034 151.2489 182° South 282 325 18,200  Level Aus ATC (RADAR)
09:01PM -32.7820 151.2453 182° South 283 326 18,200  Level Aus ATC (RADAR)
09:01PM -32.8413 151.2417 183° South 285 328 18,200  Level Aus ATC (RADAR)
09:02PM -32.8873 151.2392 183° South 284 327 18,200  Level Aus ATC (RADAR)
09:03PM -32.9465 151.2363 182° South 284 327 18,200 -60 Level Aus ATC (RADAR)
09:04PM -33.0251 151.2316 183° South 284 327 18,100 -960 Descending Aus ATC (RADAR)
09:05PM -33.1118 151.2271 182° South 302 348 16,400 -1,620 Descending Aus ATC (RADAR)
09:06PM -33.2076 151.2220 183° South 300 345 14,700 -1,560 Descending Aus ATC (RADAR)
09:07PM -33.2882 151.2173 183° South 290 334 13,100 -1,560 Descending Aus ATC (RADAR)
09:08PM -33.3536 151.2141 182° South 285 328 11,900 -1,500 Descending Aus ATC (RADAR)
09:08PM -33.3987 151.2112 183° South 272 313 11,000 -1,560 Descending Aus ATC (RADAR)
09:09PM -33.4564 151.2078 183° South 272 313 9,900 -1,440 Descending Aus ATC (RADAR)
09:10PM -33.5313 151.2040 182° South 271 312 8,500 -1,380 Descending Aus ATC (RADAR)
09:11PM -33.5937 151.2009 182° South 265 305 7,400 -1,320 Descending Aus ATC (RADAR)
09:11PM -33.6352 151.1986 183° South 257 296 6,700 -1,080 Descending Aus ATC (RADAR)
09:12PM -33.6822 151.1961 183° South 254 292 6,100 -420 Descending Aus ATC (RADAR)
09:13PM -33.7495 151.2061 173° South 247 284 6,000 -60 Descending Aus ATC (RADAR)
09:14PM -33.7978 151.2283 159° South 248 285 6,000  Level Aus ATC (RADAR)
09:14PM -33.8361 151.2444 161° South 249 287 6,000  Level Aus ATC (RADAR)
09:16PM -33.9280 151.2867 159° South 250 288 6,000  Level Aus ATC (RADAR)
09:17PM -33.9828 151.3122 159° South 253 291 6,000 -360 Level Aus ATC (RADAR)
09:17PM -34.0326 151.3344 160° South 253 291 5,500 -1,200 Descending Aus ATC (RADAR)
09:18PM -34.0964 151.3346 180° South 227 261 4,000 -1,560 Descending Aus ATC (RADAR)
09:19PM -34.1203 151.3023 228° Southwest 196 226 2,900 -1,200 Descending Aus ATC (RADAR)
09:20PM -34.1232 151.2489 266° West 209 241 2,200 -660 Descending Aus ATC (RADAR)
09:21PM -34.0899 151.2251 329° Northwest 213 245 1,900 -420 Descending Aus ATC (RADAR)
09:21PM -34.0444 151.2134 348° North 187 215 1,600 -660 Descending Aus ATC (RADAR)
09:22PM -34.0124 151.2046 347° North 133 153 900 -780 Descending Aus ATC (RADAR)
09:23PM -33.9929 151.1996 348° North 122 140 500 -660 Descending Aus ATC (RADAR)
09:23PM -33.9719 151.1941 348° North 118 136 100 -600 Descending Aus ATC (RADAR)